createdAt,value
2023-03-02T00:20:24.770Z,102351.00
2023-03-02T00:25:33.794Z,102362.00
2023-03-02T00:30:46.017Z,102351.00
2023-03-02T00:35:57.371Z,102354.00
2023-03-02T00:41:14.982Z,102349.00
2023-03-02T00:46:30.261Z,102341.00
2023-03-02T00:51:37.648Z,102337.00
2023-03-02T00:57:03.526Z,102327.00
2023-03-02T01:02:24.307Z,102315.00
2023-03-02T01:07:46.483Z,102329.00
2023-03-02T01:12:54.716Z,102332.00
2023-03-02T01:18:10.682Z,102317.00
2023-03-02T01:23:34.923Z,102315.00
2023-03-02T01:28:48.244Z,102312.00
2023-03-02T01:39:22.621Z,102309.00
2023-03-02T01:50:22.598Z,102302.00
2023-03-02T01:55:37.054Z,102305.00
2023-03-02T02:00:54.222Z,102289.00
2023-03-02T02:06:15.133Z,102279.00
2023-03-02T02:11:25.584Z,102302.00
2023-03-02T02:16:36.266Z,102283.00
2023-03-02T02:22:32.621Z,102271.00
2023-03-02T02:28:01.470Z,102271.00
2023-03-02T02:33:37.129Z,102272.00
2023-03-02T02:38:52.499Z,102267.00
2023-03-02T02:44:25.304Z,102277.00
2023-03-02T03:00:29.291Z,102246.00
2023-03-02T03:05:48.515Z,102258.00
2023-03-02T03:10:53.872Z,102262.00
2023-03-02T03:16:05.102Z,102256.00
2023-03-02T03:21:12.622Z,102264.00
2023-03-02T03:26:18.695Z,102269.00
2023-03-02T03:37:06.847Z,102267.00
2023-03-02T03:42:15.976Z,102252.00
2023-03-02T03:47:25.577Z,102264.00
2023-03-02T03:52:33.299Z,102275.00
2023-03-02T03:57:47.583Z,102270.00
2023-03-02T04:02:59.375Z,102273.00
2023-03-02T04:13:27.919Z,102274.00
2023-03-02T04:18:44.699Z,102277.00
2023-03-02T04:23:50.776Z,102264.00
2023-03-02T04:29:00.401Z,102261.00
2023-03-02T04:34:12.336Z,102265.00
2023-03-02T04:39:22.649Z,102259.00
2023-03-02T04:44:30.284Z,102273.00
2023-03-02T04:49:55.894Z,102260.00
2023-03-02T04:55:03.432Z,102267.00
2023-03-02T05:00:12.300Z,102273.00
2023-03-02T05:05:44.978Z,102283.00
2023-03-02T05:10:54.708Z,102279.00
2023-03-02T05:16:04.578Z,102263.00
2023-03-02T05:21:17.460Z,102286.00
2023-03-02T05:26:22.585Z,102284.00
2023-03-02T05:31:37.601Z,102292.00
2023-03-02T05:36:50.395Z,102280.00
2023-03-02T05:42:01.832Z,102283.00
2023-03-02T05:47:07.711Z,102273.00
2023-03-02T05:52:18.023Z,102273.00
2023-03-02T05:57:21.791Z,102276.00
2023-03-02T06:02:26.913Z,102261.00
2023-03-02T06:07:46.968Z,102276.00
2023-03-02T06:13:09.140Z,102271.00
2023-03-02T06:18:14.207Z,102275.00
2023-03-02T06:23:32.976Z,102284.00
2023-03-02T06:28:52.005Z,102280.00
2023-03-02T06:34:07.671Z,102268.00
2023-03-02T06:40:06.790Z,102282.00
2023-03-02T07:08:24.513Z,102286.00
2023-03-02T08:02:57.331Z,102261.00
2023-03-02T08:26:50.374Z,102265.00
2023-03-02T08:32:05.741Z,102266.00
2023-03-02T08:37:09.240Z,102269.00
2023-03-02T08:52:40.166Z,102260.00
2023-03-02T08:57:52.035Z,102268.00
2023-03-02T09:03:13.504Z,102261.00
2023-03-02T09:08:16.592Z,102262.00
2023-03-02T09:13:21.591Z,102258.00
2023-03-02T09:18:25.673Z,102247.00
2023-03-02T09:29:13.881Z,102227.00
2023-03-02T09:34:17.637Z,102236.00
2023-03-02T09:39:21.259Z,102233.00
2023-03-02T10:01:20.712Z,102224.00
2023-03-02T10:11:42.685Z,102215.00
2023-03-02T10:22:01.040Z,102204.00
2023-03-02T10:32:31.949Z,102211.00
2023-03-02T10:37:41.195Z,102200.00
2023-03-02T10:42:49.071Z,102211.00
2023-03-02T10:48:03.134Z,102209.00
2023-03-02T10:58:41.113Z,102203.00
2023-03-02T11:20:52.980Z,102185.00
2023-03-02T11:31:02.339Z,102164.00
2023-03-02T12:26:36.261Z,102127.00
2023-03-02T12:31:50.119Z,102111.00
2023-03-02T13:02:20.765Z,102077.00
2023-03-02T13:14:57.360Z,102043.00
2023-03-02T13:20:04.768Z,102057.00
2023-03-02T13:25:31.901Z,102051.00
2023-03-02T14:54:52.661Z,101946.00
2023-03-02T14:59:56.753Z,101943.00
2023-03-02T15:04:59.264Z,101933.00
2023-03-02T15:10:04.153Z,101920.00
2023-03-02T16:01:20.929Z,101905.00
2023-03-02T16:26:20.645Z,101889.00
2023-03-02T16:31:26.189Z,101886.00
2023-03-02T16:43:18.540Z,101890.00
2023-03-02T16:48:21.543Z,101889.00
2023-03-02T16:53:24.506Z,101880.00
2023-03-02T16:58:29.023Z,101881.00
2023-03-02T17:03:32.061Z,101876.00
2023-03-02T17:08:35.341Z,101873.00
2023-03-02T17:13:39.748Z,101881.00
2023-03-02T17:18:42.821Z,101876.00
2023-03-02T17:23:46.269Z,101860.00
2023-03-02T17:28:50.284Z,101873.00
2023-03-02T17:33:53.072Z,101881.00
2023-03-02T17:38:55.947Z,101881.00
2023-03-02T17:44:01.793Z,101881.00
2023-03-02T17:49:04.638Z,101884.00
2023-03-02T17:54:07.473Z,101877.00
2023-03-02T17:59:12.249Z,101876.00
2023-03-02T18:04:14.940Z,101883.00
2023-03-02T18:09:17.836Z,101878.00
2023-03-02T18:14:22.185Z,101879.00
2023-03-02T18:19:25.017Z,101884.00
2023-03-02T18:24:28.152Z,101881.00
2023-03-02T18:29:32.511Z,101883.00
2023-03-02T18:34:35.365Z,101878.00
2023-03-02T18:39:38.421Z,101857.00
2023-03-02T18:44:43.012Z,101862.00
2023-03-02T18:49:46.091Z,101862.00
2023-03-02T18:54:48.896Z,101864.00
2023-03-02T18:59:53.643Z,101877.00
2023-03-02T19:04:56.566Z,101877.00
2023-03-02T19:09:59.583Z,101878.00
2023-03-02T19:15:05.245Z,101881.00
2023-03-02T19:20:12.588Z,101880.00
2023-03-02T19:25:15.359Z,101885.00
2023-03-02T19:30:25.526Z,101874.00
2023-03-02T19:35:30.323Z,101885.00
2023-03-02T19:40:33.978Z,101880.00
2023-03-02T19:45:38.439Z,101882.00
2023-03-02T19:50:41.416Z,101885.00
2023-03-02T19:55:44.485Z,101880.00
2023-03-02T20:00:49.305Z,101878.00
2023-03-02T20:05:55.140Z,101876.00
2023-03-02T20:10:57.965Z,101875.00
2023-03-02T20:16:02.728Z,101875.00
2023-03-02T20:21:06.529Z,101875.00
2023-03-02T20:26:10.570Z,101880.00
2023-03-02T20:31:16.196Z,101864.00
2023-03-02T20:36:26.713Z,101864.00
2023-03-02T20:41:30.220Z,101865.00
2023-03-02T20:46:39.857Z,101870.00
2023-03-02T20:51:47.928Z,101853.00
2023-03-02T20:56:51.762Z,101849.00
2023-03-02T21:01:56.375Z,101842.00
2023-03-02T21:06:59.531Z,101844.00
2023-03-02T21:12:02.920Z,101837.00
2023-03-02T21:17:07.824Z,101847.00
2023-03-02T21:22:10.657Z,101846.00
2023-03-02T21:27:14.475Z,101833.00
2023-03-02T21:32:19.216Z,101842.00
2023-03-02T21:37:22.184Z,101847.00
2023-03-02T21:42:25.224Z,101830.00
2023-03-02T21:47:29.528Z,101819.00
2023-03-02T21:52:32.189Z,101818.00
2023-03-02T21:57:35.193Z,101813.00
2023-03-02T22:02:39.882Z,101806.00
2023-03-02T22:07:42.810Z,101795.00
2023-03-02T22:12:45.552Z,101794.00
2023-03-02T22:17:49.910Z,101801.00
2023-03-02T22:22:54.744Z,101809.00
2023-03-02T22:27:57.687Z,101811.00
2023-03-02T22:33:02.108Z,101810.00
2023-03-02T22:38:18.749Z,101816.00
2023-03-02T22:43:26.291Z,101801.00
2023-03-02T22:48:33.457Z,101792.00
2023-03-02T22:53:46.546Z,101791.00
2023-03-02T22:58:51.667Z,101792.00
2023-03-02T23:04:10.801Z,101767.00
2023-03-02T23:09:17.843Z,101780.00
2023-03-02T23:14:28.225Z,101769.00
2023-03-02T23:19:32.771Z,101765.00
2023-03-02T23:24:35.643Z,101775.00
2023-03-02T23:29:38.786Z,101759.00
2023-03-02T23:34:43.244Z,101752.00
2023-03-02T23:39:46.261Z,101733.00
2023-03-02T23:44:49.079Z,101734.00
2023-03-02T23:49:53.454Z,101732.00
2023-03-02T23:54:56.658Z,101713.00
